Time;durP1;ratioP1;P1;durP2;ratioP2;P2;SDS_P1;SDS_P2;PMS_P1;PMS_P2;Temp;Humidity;BMP_temperature;BMP_pressure;BME280_temperature;BME280_humidity;BME280_pressure;Samples;Min_cycle;Max_cycle;Signal;HPM_P1;HPM_P2
2022/06/02 00:02:13;;;;;;;;;23.50;16.25;;;27.60;97766.84;;;;118651;1178;24838;-59
2022/06/02 00:04:56;;;;;;;;;20.00;14.33;;;27.57;97770.13;;;;118917;1177;25478;-58
2022/06/02 00:07:41;;;;;;;;;25.33;18.67;;;27.56;97771.91;;;;119046;1177;25275;-62
2022/06/02 00:10:36;;;;;;;;;21.00;16.00;;;27.59;97770.36;;;;118964;1177;24964;-62
2022/06/02 00:13:31;;;;;;;;;21.67;17.67;;;27.57;97771.04;;;;119027;1176;25017;-62
2022/06/02 00:16:02;;;;;;;;;14.67;13.00;;;27.52;97770.23;;;;119046;1176;25047;-61
2022/06/02 00:18:49;;;;;;;;;23.25;16.50;;;27.49;97770.38;;;;119143;1176;25384;-60
2022/06/02 00:21:37;;;;;;;;;15.75;10.50;;;27.55;97769.79;;;;118942;1176;25639;-61
2022/06/02 00:24:27;;;;;;;;;19.25;15.50;;;27.55;97767.94;;;;119028;1176;25483;-59
2022/06/02 00:27:02;;;;;;;;;15.75;13.50;;;27.56;97773.61;;;;118990;1177;25129;-61
2022/06/02 00:29:45;;;;;;;;;17.50;15.75;;;27.53;97775.23;;;;119132;1177;26018;-60
2022/06/02 00:32:24;;;;;;;;;16.50;13.25;;;27.50;97773.17;;;;118953;1177;25811;-59
2022/06/02 00:35:10;;;;;;;;;21.25;15.50;;;27.48;97772.08;;;;119068;1177;25491;-61
2022/06/02 00:37:52;;;;;;;;;17.25;13.50;;;27.47;97769.80;;;;119109;1177;24947;-60
2022/06/02 00:40:23;;;;;;;;;16.50;13.50;;;27.45;97773.97;;;;119059;1177;24734;-63
2022/06/02 00:43:29;;;;;;;;;20.00;13.50;;;27.43;97772.46;;;;119017;1177;24995;-60
2022/06/02 00:46:14;;;;;;;;;17.25;15.50;;;27.45;97768.45;;;;118985;1177;24975;-60
2022/06/02 00:49:19;;;;;;;;;16.00;13.75;;;27.41;97765.90;;;;119139;1176;25176;-61
2022/06/02 00:51:55;;;;;;;;;17.50;12.75;;;27.41;97765.77;;;;119028;1177;25194;-62
2022/06/02 00:57:37;;;;;;;;;15.25;14.00;;;27.39;97757.69;;;;118977;1175;25151;-60
2022/06/02 01:00:11;;;;;;;;;15.33;12.67;;;27.36;97755.88;;;;119073;1176;25040;-61
2022/06/02 01:03:14;;;;;;;;;16.00;14.33;;;27.35;97752.86;;;;119092;1176;25050;-61
2022/06/02 01:05:50;;;;;;;;;20.00;15.00;;;27.41;97751.62;;;;119120;1177;25669;-62
2022/06/02 01:08:50;;;;;;;;;16.75;12.75;;;27.38;97752.94;;;;118939;1176;24919;-57
2022/06/02 01:11:29;;;;;;;;;19.75;11.00;;;27.44;97753.77;;;;118884;1177;25610;-59
2022/06/02 01:14:24;;;;;;;;;17.33;15.33;;;27.42;97758.83;;;;119111;1177;25195;-61
2022/06/02 01:17:44;;;;;;;;;21.50;13.50;;;27.40;97758.52;;;;119042;1177;25409;-58
2022/06/02 01:21:04;;;;;;;;;17.75;14.25;;;27.48;97759.44;;;;118919;1176;25153;-61
2022/06/02 01:23:35;;;;;;;;;14.75;14.00;;;27.59;97762.14;;;;118542;1179;25433;-60
2022/06/02 01:26:23;;;;;;;;;15.25;14.25;;;27.53;97761.83;;;;119047;1177;25050;-62
2022/06/02 01:29:08;;;;;;;;;11.75;11.75;;;27.43;97763.54;;;;119001;1177;25573;-61
2022/06/02 01:31:57;;;;;;;;;24.00;16.25;;;27.39;97762.38;;;;119119;1176;25948;-60
2022/06/02 01:34:44;;;;;;;;;19.00;15.25;;;27.38;97761.19;;;;118986;1178;25074;-62
2022/06/02 01:37:16;;;;;;;;;17.25;13.50;;;27.41;97763.44;;;;118798;1178;25790;-60
2022/06/02 01:39:45;;;;;;;;;12.25;11.50;;;27.39;97762.48;;;;118915;1178;25568;-60
2022/06/02 01:42:27;;;;;;;;;18.00;11.50;;;27.34;97761.44;;;;118986;1177;25199;-61
2022/06/02 01:45:32;;;;;;;;;18.00;14.25;;;27.32;97764.60;;;;119053;1176;25353;-60
2022/06/02 01:48:33;;;;;;;;;11.00;10.00;;;27.39;97762.44;;;;118920;1177;24912;-61
2022/06/02 01:51:05;;;;;;;;;14.75;12.00;;;27.46;97762.21;;;;118808;1180;25652;-58
2022/06/02 01:53:53;;;;;;;;;16.00;11.67;;;27.44;97763.34;;;;119003;1177;26083;-60
2022/06/02 01:57:06;;;;;;;;;13.50;11.75;;;27.44;97764.50;;;;119000;1177;24678;-59
2022/06/02 02:00:00;;;;;;;;;10.50;9.75;;;27.44;97763.94;;;;119009;1177;24925;-62
2022/06/02 02:02:29;;;;;;;;;19.50;13.50;;;27.45;97757.66;;;;119145;1176;25131;-59
2022/06/02 02:05:16;;;;;;;;;13.25;9.75;;;27.41;97754.30;;;;119061;1177;25860;-61
2022/06/02 02:08:09;;;;;;;;;19.25;13.00;;;27.37;97752.02;;;;118900;1177;24930;-60
2022/06/02 02:10:56;;;;;;;;;16.00;13.50;;;27.42;97748.70;;;;119090;1177;25309;-59
2022/06/02 02:13:58;;;;;;;;;12.75;11.25;;;27.41;97748.41;;;;119172;1177;25035;-58
2022/06/02 02:16:40;;;;;;;;;16.25;12.75;;;27.37;97747.20;;;;119509;1177;25528;-61
2022/06/02 02:19:25;;;;;;;;;16.50;12.25;;;27.42;97742.21;;;;118993;1177;25529;-62
2022/06/02 02:22:07;;;;;;;;;16.50;12.75;;;27.37;97742.78;;;;119117;1175;25166;-59
2022/06/02 02:24:54;;;;;;;;;18.00;12.25;;;27.35;97741.80;;;;119132;1177;24990;-58
2022/06/02 02:27:31;;;;;;;;;10.33;9.67;;;27.33;97745.48;;;;119052;1177;25270;-60
2022/06/02 02:30:10;;;;;;;;;14.50;12.75;;;27.31;97740.06;;;;119098;1177;24936;-61
2022/06/02 02:32:58;;;;;;;;;10.25;9.75;;;27.30;97737.95;;;;119061;1177;25310;-62
2022/06/02 02:35:54;;;;;;;;;16.00;13.25;;;27.32;97737.77;;;;118961;1175;25056;-59
2022/06/02 02:38:42;;;;;;;;;13.25;11.25;;;27.39;97739.21;;;;118986;1178;26025;-59
2022/06/02 02:41:24;;;;;;;;;14.25;13.25;;;27.36;97744.93;;;;119128;1177;25362;-62
2022/06/02 02:44:04;;;;;;;;;12.75;12.25;;;27.32;97745.95;;;;119149;1176;24980;-60
2022/06/02 02:46:41;;;;;;;;;10.33;10.33;;;27.30;97749.30;;;;119026;1177;25925;-60
2022/06/02 02:49:12;;;;;;;;;16.25;11.00;;;27.27;97748.72;;;;118929;1178;25054;-59
2022/06/02 02:52:13;;;;;;;;;15.67;13.00;;;27.24;97746.94;;;;119168;1177;25297;-58
2022/06/02 02:54:49;;;;;;;;;15.25;13.00;;;27.25;97748.88;;;;119181;1177;25486;-62
2022/06/02 02:57:30;;;;;;;;;14.75;12.00;;;27.25;97747.09;;;;119089;1176;24999;-62
2022/06/02 03:00:18;;;;;;;;;12.50;11.25;;;27.23;97745.23;;;;119045;1177;25640;-63
2022/06/02 03:03:07;;;;;;;;;9.25;8.75;;;27.26;97747.35;;;;119142;1175;24915;-60
2022/06/02 03:06:10;;;;;;;;;13.33;10.67;;;27.26;97749.10;;;;119041;1177;25068;-58
2022/06/02 03:08:43;;;;;;;;;14.00;11.00;;;27.27;97752.15;;;;119000;1177;25606;-60
2022/06/02 03:11:30;;;;;;;;;14.75;10.75;;;27.21;97756.02;;;;119092;1177;24687;-62
2022/06/02 03:14:18;;;;;;;;;11.00;11.00;;;27.22;97756.48;;;;119053;1177;25037;-58
2022/06/02 03:16:57;;;;;;;;;11.50;11.25;;;27.20;97753.91;;;;119003;1177;25197;-63
2022/06/02 03:19:55;;;;;;;;;9.33;9.33;;;27.19;97753.52;;;;118816;1178;24843;-59
2022/06/02 03:22:44;;;;;;;;;13.25;10.00;;;27.23;97751.61;;;;118917;1177;26369;-61
2022/06/02 03:25:39;;;;;;;;;12.67;10.67;;;27.25;97747.28;;;;118940;1177;25033;-61
2022/06/02 03:28:05;;;;;;;;;13.25;10.75;;;27.29;97748.77;;;;118997;1177;25431;-61
2022/06/02 03:30:45;;;;;;;;;14.75;9.00;;;27.26;97757.17;;;;118932;1177;24907;-63
2022/06/02 03:33:26;;;;;;;;;14.25;12.25;;;27.21;97760.26;;;;119045;1177;25562;-61
2022/06/02 03:36:12;;;;;;;;;22.67;12.67;;;27.18;97763.00;;;;119124;1177;25535;-60
2022/06/02 03:38:45;;;;;;;;;19.25;16.50;;;27.17;97762.06;;;;119168;1176;25410;-63
2022/06/02 03:41:20;;;;;;;;;18.00;14.33;;;27.16;97766.56;;;;119068;1177;25289;-62
2022/06/02 03:44:00;;;;;;;;;18.75;13.75;;;27.16;97765.41;;;;119164;1177;25145;-61
2022/06/02 03:46:31;;;;;;;;;15.75;14.75;;;27.21;97766.77;;;;119193;1176;25445;-62
2022/06/02 03:49:10;;;;;;;;;9.25;5.00;;;27.21;97771.92;;;;118998;1177;25080;-61
2022/06/02 03:52:22;;;;;;;;;16.50;13.75;;;27.23;97776.08;;;;118953;1177;24716;-62
2022/06/02 03:54:51;;;;;;;;;16.00;10.50;;;27.28;97781.10;;;;118974;1178;25545;-60
2022/06/02 03:57:25;;;;;;;;;15.50;11.75;;;27.26;97781.86;;;;119102;1175;25207;-58
2022/06/02 03:59:58;;;;;;;;;18.50;11.25;;;27.23;97782.63;;;;118964;1177;24886;-59
2022/06/02 04:02:40;;;;;;;;;12.25;9.75;;;27.23;97782.72;;;;118971;1177;25591;-61
2022/06/02 04:05:32;;;;;;;;;16.75;12.75;;;27.29;97780.41;;;;118874;1178;25149;-60
2022/06/02 04:08:35;;;;;;;;;11.50;11.25;;;27.33;97778.31;;;;119175;1175;25418;-61
2022/06/02 04:14:59;;;;;;;;;14.50;11.50;;;27.41;97774.77;;;;119279;1178;24955;-59
2022/06/02 04:17:57;;;;;;;;;43.50;24.25;;;27.42;97777.10;;;;119250;1176;25530;-60
2022/06/02 04:20:56;;;;;;;;;29.00;22.25;;;27.40;97785.48;;;;119024;1178;25094;-60
2022/06/02 04:23:35;;;;;;;;;23.25;17.00;;;27.37;97785.13;;;;119091;1177;24875;-60
2022/06/02 04:26:42;;;;;;;;;18.00;14.33;;;27.32;97783.61;;;;119051;1176;24981;-58
2022/06/02 04:29:23;;;;;;;;;17.25;15.00;;;27.31;97785.56;;;;119035;1175;24759;-58
2022/06/02 04:32:29;;;;;;;;;23.00;16.75;;;27.30;97785.59;;;;119079;1177;25627;-61
2022/06/02 04:35:24;;;;;;;;;21.75;14.50;;;27.33;97783.83;;;;119296;1177;26218;-59
2022/06/02 04:38:13;;;;;;;;;15.33;12.67;;;27.40;97777.73;;;;119211;1177;24958;-61
2022/06/02 04:40:59;;;;;;;;;15.00;14.25;;;27.42;97779.60;;;;119082;1176;25875;-60
2022/06/02 04:43:35;;;;;;;;;20.50;16.00;;;27.43;97782.08;;;;119221;1178;25463;-59
2022/06/02 04:46:29;;;;;;;;;18.00;14.25;;;27.43;97782.79;;;;119053;1175;25324;-59
2022/06/02 04:49:15;;;;;;;;;17.33;14.00;;;27.46;97780.97;;;;119276;1175;25112;-58
2022/06/02 04:51:50;;;;;;;;;16.00;14.00;;;27.45;97780.94;;;;119074;1178;25277;-60
2022/06/02 04:54:42;;;;;;;;;15.75;13.50;;;27.45;97784.29;;;;119176;1177;25265;-59
2022/06/02 04:57:15;;;;;;;;;18.00;14.25;;;27.51;97788.76;;;;119111;1177;26039;-59
2022/06/02 04:59:58;;;;;;;;;21.00;13.00;;;27.48;97787.66;;;;119083;1177;25016;-57
2022/06/02 05:02:34;;;;;;;;;16.50;16.50;;;27.50;97786.11;;;;119090;1176;26090;-57
2022/06/02 05:05:22;;;;;;;;;20.25;16.25;;;27.52;97785.83;;;;119055;1176;24776;-58
2022/06/02 05:08:04;;;;;;;;;19.75;14.50;;;27.58;97789.21;;;;119125;1177;25202;-59
2022/06/02 05:10:58;;;;;;;;;20.50;14.00;;;27.59;97790.73;;;;119271;1175;24796;-59
2022/06/02 05:13:48;;;;;;;;;15.50;14.75;;;27.61;97786.73;;;;119269;1176;24824;-60
2022/06/02 05:16:28;;;;;;;;;16.00;15.50;;;27.57;97785.88;;;;119021;1177;25276;-59
2022/06/02 05:19:22;;;;;;;;;17.50;15.50;;;27.50;97781.55;;;;119102;1177;25624;-58
2022/06/02 05:21:52;;;;;;;;;16.75;15.00;;;27.46;97782.89;;;;119188;1176;24814;-58
2022/06/02 05:24:43;;;;;;;;;15.25;14.75;;;27.41;97787.84;;;;119085;1177;25294;-58
2022/06/02 05:27:47;;;;;;;;;23.75;17.75;;;27.38;97790.16;;;;119152;1177;24776;-58
2022/06/02 05:30:52;;;;;;;;;19.50;16.00;;;27.39;97786.90;;;;119094;1177;24853;-58
2022/06/02 05:33:33;;;;;;;;;16.50;15.00;;;27.36;97784.83;;;;119258;1177;24778;-59
2022/06/02 05:36:01;;;;;;;;;13.50;13.50;;;27.35;97782.42;;;;118877;1177;25510;-59
2022/06/02 05:38:36;;;;;;;;;21.50;17.50;;;27.33;97781.06;;;;119004;1177;25302;-59
2022/06/02 05:41:11;;;;;;;;;11.50;11.50;;;27.32;97783.88;;;;118968;1177;26262;-58
2022/06/02 05:44:11;;;;;;;;;19.00;15.00;;;27.32;97785.27;;;;119217;1177;25603;-58
2022/06/02 05:47:02;;;;;;;;;19.67;17.00;;;27.43;97782.66;;;;119066;1176;25068;-58
2022/06/02 05:49:34;;;;;;;;;19.50;16.50;;;27.43;97782.48;;;;118988;1179;24657;-58
2022/06/02 05:52:10;;;;;;;;;20.50;19.25;;;27.38;97782.54;;;;119090;1177;25429;-58
2022/06/02 05:55:05;;;;;;;;;16.00;14.33;;;27.35;97780.80;;;;119033;1176;25182;-59
2022/06/02 05:57:37;;;;;;;;;16.00;14.25;;;27.40;97781.55;;;;118968;1175;25788;-59
2022/06/02 06:00:11;;;;;;;;;17.25;15.25;;;27.41;97785.09;;;;118910;1176;25268;-59
2022/06/02 06:03:07;;;;;;;;;16.25;13.50;;;27.40;97784.45;;;;119027;1175;25614;-59
2022/06/02 06:05:46;;;;;;;;;19.75;17.50;;;27.46;97782.41;;;;118985;1175;24684;-59
2022/06/02 06:08:58;;;;;;;;;22.00;19.75;;;27.42;97780.80;;;;119047;1177;25608;-59
2022/06/02 06:11:45;;;;;;;;;21.00;17.25;;;27.49;97779.44;;;;119148;1177;24928;-59
2022/06/02 06:14:15;;;;;;;;;12.25;11.25;;;27.44;97777.05;;;;119178;1177;25700;-60
2022/06/02 06:17:29;;;;;;;;;20.00;18.33;;;27.39;97776.22;;;;119093;1177;24787;-59
2022/06/02 06:20:07;;;;;;;;;21.25;16.75;;;27.49;97775.55;;;;119197;1177;25045;-59
2022/06/02 06:22:48;;;;;;;;;19.75;16.25;;;27.48;97780.44;;;;118971;1177;25771;-58
2022/06/02 06:25:59;;;;;;;;;18.50;17.75;;;27.42;97783.25;;;;119190;1176;25386;-60
2022/06/02 06:28:33;;;;;;;;;23.75;15.75;;;27.44;97788.91;;;;119085;1175;25291;-58
2022/06/02 06:31:36;;;;;;;;;17.50;15.50;;;27.39;97784.75;;;;119208;1176;25508;-58
2022/06/02 06:34:38;;;;;;;;;17.00;17.00;;;27.51;97782.42;;;;119123;1177;24663;-59
2022/06/02 06:37:29;;;;;;;;;12.50;10.75;;;27.59;97780.71;;;;119177;1177;25552;-59
2022/06/02 06:40:16;;;;;;;;;20.75;19.25;;;27.61;97779.56;;;;119133;1175;25460;-59
2022/06/02 06:43:21;;;;;;;;;15.75;15.75;;;27.54;97777.38;;;;119102;1177;24979;-59
2022/06/02 06:46:17;;;;;;;;;28.25;22.75;;;27.54;97773.39;;;;119091;1177;24996;-64
2022/06/02 06:49:24;;;;;;;;;25.75;20.25;;;27.53;97775.44;;;;119278;1177;25537;-62
2022/06/02 06:52:55;;;;;;;;;20.33;20.00;;;27.62;97772.77;;;;119144;1177;24921;-62
2022/06/02 06:55:45;;;;;;;;;24.00;20.00;;;27.61;97773.88;;;;118873;1180;25677;-63
2022/06/02 06:58:36;;;;;;;;;22.50;16.00;;;27.61;97776.64;;;;118804;1180;25030;-60
2022/06/02 07:01:15;;;;;;;;;22.50;17.00;;;27.56;97774.54;;;;119132;1177;24695;-60
2022/06/02 07:04:20;;;;;;;;;21.50;18.50;;;27.51;97773.22;;;;119152;1177;25104;-59
2022/06/02 07:07:06;;;;;;;;;22.25;19.50;;;27.50;97769.98;;;;119216;1175;25524;-62
2022/06/02 07:09:59;;;;;;;;;21.00;19.25;;;27.66;97773.31;;;;119163;1177;24661;-61
2022/06/02 07:15:26;;;;;;;;;17.25;17.25;;;27.72;97777.00;;;;119191;1177;25145;-57
2022/06/02 07:18:30;;;;;;;;;19.75;19.00;;;27.81;97778.08;;;;119191;1177;24734;-63
2022/06/02 07:21:14;;;;;;;;;20.00;18.00;;;27.80;97775.98;;;;119102;1177;25029;-66
2022/06/02 07:23:50;;;;;;;;;15.75;12.75;;;27.73;97777.48;;;;119269;1177;24703;-66
2022/06/02 07:26:25;;;;;;;;;20.75;17.50;;;27.74;97777.75;;;;118921;1175;25508;-61
2022/06/02 07:29:01;;;;;;;;;28.75;23.25;;;27.67;97776.38;;;;118889;1177;24721;-63
2022/06/02 07:32:05;;;;;;;;;38.00;26.75;;;27.64;97774.73;;;;119207;1177;25394;-69
2022/06/02 07:34:56;;;;;;;;;35.00;27.50;;;27.69;97777.11;;;;119089;1177;25014;-59
2022/06/02 07:37:48;;;;;;;;;23.50;17.75;;;27.68;97777.86;;;;119103;1177;26008;-62
2022/06/02 07:40:22;;;;;;;;;43.00;33.00;;;27.73;97777.23;;;;119091;1177;25207;-63
2022/06/02 07:42:58;;;;;;;;;47.00;36.50;;;27.71;97778.75;;;;119326;1177;25605;-60
2022/06/02 07:45:50;;;;;;;;;66.67;46.00;;;27.73;97779.98;;;;119128;1176;24806;-65
2022/06/02 07:48:38;;;;;;;;;56.00;43.33;;;27.80;97781.39;;;;119143;1177;24878;-62
2022/06/02 07:51:06;;;;;;;;;64.00;47.50;;;27.86;97778.69;;;;119134;1177;25132;-64
2022/06/02 07:53:57;;;;;;;;;69.00;48.67;;;27.82;97775.53;;;;118973;1177;25120;-66
2022/06/02 07:56:43;;;;;;;;;70.33;44.33;;;27.88;97773.13;;;;119195;1176;24883;-63
2022/06/02 07:59:48;;;;;;;;;78.67;54.00;;;27.94;97768.93;;;;119177;1177;25115;-64
2022/06/02 08:02:38;;;;;;;;;71.33;52.33;;;27.94;97771.44;;;;119209;1177;25161;-63
2022/06/02 08:05:14;;;;;;;;;62.67;48.67;;;27.92;97771.94;;;;119093;1176;24818;-64
2022/06/02 08:08:29;;;;;;;;;70.33;49.67;;;27.92;97773.75;;;;119089;1177;25421;-65
2022/06/02 08:11:10;;;;;;;;;69.67;49.67;;;28.03;97775.52;;;;118955;1178;25594;-60
2022/06/02 08:13:52;;;;;;;;;62.00;45.00;;;27.98;97778.74;;;;119053;1176;25553;-59
2022/06/02 08:16:44;;;;;;;;;67.00;47.67;;;27.95;97778.16;;;;119058;1177;25213;-58
2022/06/02 08:19:42;;;;;;;;;58.33;42.67;;;27.96;97779.15;;;;119144;1176;25075;-59
2022/06/02 08:22:12;;;;;;;;;66.67;50.00;;;28.01;97777.46;;;;119198;1177;25577;-58
2022/06/02 08:25:07;;;;;;;;;72.00;49.50;;;28.01;97775.72;;;;119182;1177;25317;-61
2022/06/02 08:27:52;;;;;;;;;68.00;48.00;;;27.98;97774.44;;;;119696;1177;24927;-64
2022/06/02 08:30:30;;;;;;;;;68.67;49.33;;;28.09;97774.48;;;;119621;1177;26052;-62
2022/06/02 08:33:23;;;;;;;;;75.67;51.67;;;28.17;97770.70;;;;120163;1177;25153;-60
2022/06/02 08:36:07;;;;;;;;;65.33;48.00;;;28.39;97770.03;;;;119316;1177;24796;-60
2022/06/02 08:38:42;;;;;;;;;73.33;53.67;;;28.38;97769.51;;;;119468;1176;25605;-62
2022/06/02 08:41:44;;;;;;;;;71.33;49.00;;;28.38;97766.27;;;;119258;1177;25299;-62
2022/06/02 08:45:12;;;;;;;;;70.67;50.67;;;28.47;97763.30;;;;119305;1177;24875;-62
2022/06/02 08:48:02;;;;;;;;;67.33;47.33;;;28.59;97762.58;;;;118605;1181;26239;-63
2022/06/02 08:50:43;;;;;;;;;76.00;52.67;;;28.16;97760.98;;;;118604;1180;24840;-61
2022/06/02 08:53:41;;;;;;;;;68.50;48.00;;;27.90;97766.52;;;;119216;1177;25296;-61
2022/06/02 08:56:48;;;;;;;;;72.67;48.00;;;27.78;97766.42;;;;119121;1177;25481;-62
2022/06/02 08:59:32;;;;;;;;;79.00;53.33;;;27.66;97767.79;;;;119165;1177;25088;-59
2022/06/02 09:02:33;;;;;;;;;72.00;49.00;;;27.58;97767.23;;;;119161;1177;24926;-62
2022/06/02 09:05:34;;;;;;;;;73.00;48.00;;;27.55;97768.02;;;;119192;1177;25410;-61
2022/06/02 09:08:45;;;;;;;;;77.33;54.67;;;27.53;97768.67;;;;119143;1176;25308;-59
2022/06/02 09:11:20;;;;;;;;;72.00;51.50;;;27.52;97765.50;;;;118715;1180;25388;-56
2022/06/02 09:14:13;;;;;;;;;69.67;50.67;;;27.54;97768.33;;;;118590;1181;25742;-62
2022/06/02 09:17:07;;;;;;;;;67.67;48.33;;;27.49;97770.00;;;;119091;1177;25068;-59
2022/06/02 09:19:39;;;;;;;;;58.67;43.00;;;27.51;97768.20;;;;119145;1177;24960;-62
2022/06/02 09:22:12;;;;;;;;;57.67;43.00;;;27.50;97766.34;;;;119065;1178;24886;-57
2022/06/02 09:25:08;;;;;;;;;65.67;47.67;;;27.49;97770.36;;;;119046;1175;25497;-58
2022/06/02 09:27:50;;;;;;;;;62.67;44.00;;;27.52;97766.80;;;;119084;1177;25805;-57
2022/06/02 09:30:44;;;;;;;;;63.00;47.00;;;27.55;97762.20;;;;118973;1175;26173;-60
2022/06/02 09:33:42;;;;;;;;;65.33;45.67;;;27.58;97765.73;;;;119218;1177;24686;-66
2022/06/02 09:36:57;;;;;;;;;59.00;44.00;;;27.61;97767.80;;;;119159;1175;25366;-61
2022/06/02 09:39:50;;;;;;;;;53.00;35.00;;;27.69;97764.84;;;;119155;1175;25682;-60
2022/06/02 09:42:16;;;;;;;;;45.67;35.33;;;27.66;97758.79;;;;119033;1177;24876;-60
2022/06/02 09:44:48;;;;;;;;;33.50;27.25;;;27.64;97762.11;;;;119194;1175;25230;-61
2022/06/02 09:47:43;;;;;;;;;40.50;27.75;;;27.62;97759.91;;;;119085;1177;24838;-64
2022/06/02 09:50:29;;;;;;;;;48.00;34.67;;;27.60;97758.56;;;;119231;1176;25437;-66
2022/06/02 09:53:21;;;;;;;;;37.25;27.25;;;27.59;97762.09;;;;119170;1177;25495;-60
2022/06/02 09:56:08;;;;;;;;;32.25;25.50;;;27.59;97761.57;;;;119285;1177;24890;-59
2022/06/02 09:58:57;;;;;;;;;29.50;23.00;;;27.61;97760.67;;;;119153;1177;25349;-62
2022/06/02 10:01:44;;;;;;;;;27.33;23.00;;;27.59;97757.98;;;;119084;1176;25485;-61
2022/06/02 10:04:38;;;;;;;;;22.33;20.00;;;27.59;97756.27;;;;119019;1176;25548;-61
2022/06/02 10:07:13;;;;;;;;;17.25;14.00;;;27.60;97759.52;;;;119049;1177;25497;-62
2022/06/02 10:10:09;;;;;;;;;21.00;17.75;;;27.60;97757.86;;;;118991;1178;25576;-62
2022/06/02 10:13:00;;;;;;;;;21.00;20.00;;;27.57;97755.14;;;;119144;1178;25562;-61
2022/06/02 10:15:46;;;;;;;;;19.00;16.25;;;27.55;97753.10;;;;119036;1178;24994;-58
2022/06/02 10:18:44;;;;;;;;;18.00;17.25;;;27.51;97749.20;;;;119071;1177;25470;-61
2022/06/02 10:21:29;;;;;;;;;17.50;17.00;;;27.53;97750.25;;;;119060;1177;25208;-58
2022/06/02 10:24:27;;;;;;;;;18.00;16.75;;;27.60;97752.91;;;;119159;1175;24842;-59
2022/06/02 10:27:37;;;;;;;;;23.75;17.50;;;27.64;97754.05;;;;119150;1177;24937;-60
2022/06/02 10:30:10;;;;;;;;;20.75;17.75;;;27.64;97751.72;;;;119186;1177;25392;-59
2022/06/02 10:32:51;;;;;;;;;16.75;15.50;;;27.63;97747.63;;;;119789;1178;25203;-60
2022/06/02 10:35:43;;;;;;;;;18.75;16.00;;;27.77;97740.70;;;;120950;1177;24769;-60
2022/06/02 10:38:24;;;;;;;;;19.50;17.50;;;28.09;97728.84;;;;119093;1177;25556;-61
2022/06/02 10:41:41;;;;;;;;;15.25;13.50;;;28.00;97727.35;;;;119182;1175;25357;-58
2022/06/02 10:44:18;;;;;;;;;19.25;17.50;;;27.95;97727.39;;;;118804;1177;25114;-60
2022/06/02 10:47:06;;;;;;;;;16.50;16.50;;;27.88;97733.73;;;;119113;1177;25307;-60
2022/06/02 10:50:01;;;;;;;;;18.25;14.75;;;27.84;97731.34;;;;118966;1176;25603;-59
2022/06/02 10:52:33;;;;;;;;;10.00;10.00;;;27.81;97733.85;;;;119090;1177;26455;-58
2022/06/02 10:55:33;;;;;;;;;20.25;15.75;;;27.82;97736.79;;;;119077;1176;25495;-58
2022/06/02 10:58:32;;;;;;;;;12.25;12.25;;;27.80;97738.33;;;;118966;1177;25210;-57
2022/06/02 11:01:19;;;;;;;;;17.00;14.00;;;27.76;97731.79;;;;119172;1177;25578;-58
2022/06/02 11:04:27;;;;;;;;;18.25;16.50;;;27.73;97730.14;;;;119111;1177;25114;-63
2022/06/02 11:07:23;;;;;;;;;15.75;15.50;;;27.76;97725.61;;;;119158;1177;25335;-59
2022/06/02 11:10:21;;;;;;;;;13.00;11.25;;;27.76;97717.81;;;;119090;1177;25036;-60
2022/06/02 11:13:24;;;;;;;;;16.00;15.00;;;27.72;97717.20;;;;119135;1177;24680;-60
2022/06/02 11:16:27;;;;;;;;;14.00;12.00;;;27.73;97720.84;;;;118945;1177;26005;-59
2022/06/02 11:18:55;;;;;;;;;15.50;15.25;;;27.71;97725.13;;;;119189;1176;25366;-59
2022/06/02 11:21:54;;;;;;;;;13.00;12.25;;;27.68;97730.06;;;;119083;1177;25697;-57
2022/06/02 11:24:41;;;;;;;;;17.25;13.00;;;27.67;97740.82;;;;119030;1177;26173;-56
2022/06/02 11:27:43;;;;;;;;;15.50;13.00;;;27.67;97748.73;;;;118941;1177;24948;-59
2022/06/02 11:30:29;;;;;;;;;16.50;14.25;;;27.69;97753.06;;;;119076;1177;24981;-59
2022/06/02 11:33:29;;;;;;;;;7.50;7.50;;;27.68;97754.42;;;;119066;1177;24800;-56
2022/06/02 11:36:18;;;;;;;;;13.75;13.75;;;27.66;97755.09;;;;119346;1177;25042;-59
2022/06/02 11:38:51;;;;;;;;;15.75;13.00;;;27.65;97754.81;;;;119120;1177;25363;-60
2022/06/02 11:41:33;;;;;;;;;13.50;12.50;;;27.63;97759.44;;;;119229;1177;24854;-61
2022/06/02 11:44:08;;;;;;;;;10.67;10.67;;;27.63;97756.25;;;;118956;1177;24987;-59
2022/06/02 11:46:41;;;;;;;;;15.75;14.00;;;27.59;97756.36;;;;119145;1177;24985;-58
2022/06/02 11:50:07;;;;;;;;;12.33;12.33;;;27.59;97756.52;;;;119036;1177;26008;-58
2022/06/02 11:52:50;;;;;;;;;12.50;11.75;;;27.63;97759.48;;;;118776;1180;24903;-58
2022/06/02 11:55:55;;;;;;;;;16.00;11.67;;;27.61;97761.70;;;;118705;1180;25356;-59
2022/06/02 11:59:01;;;;;;;;;16.25;14.75;;;27.58;97746.56;;;;119240;1177;25097;-57
2022/06/02 12:01:47;;;;;;;;;16.50;15.50;;;27.57;97752.10;;;;119154;1177;25776;-59
2022/06/02 12:04:21;;;;;;;;;12.00;10.25;;;27.58;97772.02;;;;118975;1177;25464;-60
2022/06/02 12:07:16;;;;;;;;;12.50;11.75;;;27.56;97786.81;;;;119140;1175;24838;-58
2022/06/02 12:10:27;;;;;;;;;13.75;12.75;;;27.55;97794.61;;;;119004;1175;24689;-58
2022/06/02 12:13:17;;;;;;;;;16.00;11.75;;;27.61;97792.63;;;;118768;1178;24862;-58
2022/06/02 12:16:27;;;;;;;;;15.50;11.50;;;27.63;97794.86;;;;119067;1177;25089;-56
2022/06/02 12:19:28;;;;;;;;;18.50;14.00;;;27.63;97793.27;;;;118690;1180;25454;-61
2022/06/02 12:22:43;;;;;;;;;14.67;13.33;;;27.63;97795.88;;;;118959;1180;25831;-61
2022/06/02 12:25:40;;;;;;;;;17.33;15.00;;;27.67;97798.16;;;;118581;1181;25620;-59
2022/06/02 12:28:43;;;;;;;;;13.75;11.75;;;27.61;97798.11;;;;118633;1178;25136;-59
2022/06/02 12:31:13;;;;;;;;;10.75;10.75;;;27.55;97789.20;;;;118983;1177;25684;-60
2022/06/02 12:34:13;;;;;;;;;14.50;12.75;;;27.54;97797.48;;;;119006;1178;24663;-58
2022/06/02 12:36:58;;;;;;;;;17.25;16.00;;;27.53;97807.13;;;;119230;1177;25655;-61
2022/06/02 12:39:48;;;;;;;;;14.67;14.67;;;27.57;97804.20;;;;119178;1177;26071;-58
2022/06/02 12:42:20;;;;;;;;;10.00;10.00;;;27.56;97806.52;;;;119292;1177;25643;-60
2022/06/02 12:45:14;;;;;;;;;14.33;14.00;;;27.54;97807.97;;;;119152;1177;24876;-58
2022/06/02 12:47:46;;;;;;;;;11.00;10.25;;;27.53;97813.83;;;;118998;1177;26438;-57
2022/06/02 12:50:34;;;;;;;;;14.50;12.50;;;27.54;97821.89;;;;119122;1177;25545;-57
2022/06/02 12:53:40;;;;;;;;;14.50;12.75;;;27.52;97827.13;;;;119186;1177;25361;-58
2022/06/02 12:56:57;;;;;;;;;12.75;10.00;;;27.56;97824.86;;;;119123;1177;26018;-59
2022/06/02 12:59:56;;;;;;;;;14.50;12.00;;;27.65;97818.11;;;;119180;1177;25698;-58
2022/06/02 13:03:07;;;;;;;;;15.00;12.00;;;27.67;97815.27;;;;119123;1175;24912;-58
2022/06/02 13:05:55;;;;;;;;;11.50;10.50;;;27.68;97817.16;;;;118980;1176;25283;-59
2022/06/02 13:09:08;;;;;;;;;10.50;10.00;;;27.70;97821.95;;;;119113;1179;25760;-58
2022/06/02 13:12:23;;;;;;;;;14.25;13.25;;;27.74;97829.15;;;;118922;1179;25739;-59
2022/06/02 13:15:18;;;;;;;;;13.00;10.75;;;27.77;97826.20;;;;118913;1178;25228;-59
2022/06/02 13:18:08;;;;;;;;;15.25;11.75;;;27.76;97822.76;;;;118993;1178;25291;-59
2022/06/02 13:21:05;;;;;;;;;16.00;14.25;;;27.75;97825.90;;;;119011;1178;25441;-60
2022/06/02 13:23:40;;;;;;;;;15.25;13.50;;;27.72;97824.79;;;;119161;1177;24821;-59
2022/06/02 13:26:51;;;;;;;;;13.50;13.50;;;27.74;97822.39;;;;119215;1178;25060;-58
2022/06/02 13:29:41;;;;;;;;;16.75;13.00;;;27.83;97816.80;;;;119081;1178;24929;-59
2022/06/02 13:32:45;;;;;;;;;18.75;16.00;;;27.83;97810.75;;;;119094;1177;24876;-61
2022/06/02 13:35:37;;;;;;;;;16.00;14.75;;;27.81;97811.67;;;;119130;1177;25636;-61
2022/06/02 13:38:45;;;;;;;;;17.75;14.50;;;27.82;97814.39;;;;119194;1175;26048;-60
2022/06/02 14:00:19;;;;;;;;;30.75;24.50;;;28.87;97822.00;;;;117017;1193;25420;-60
2022/06/02 14:26:06;;;;;;;;;21.33;20.33;;;29.39;97832.50;;;;116286;1204;24446;-62
2022/06/02 14:28:51;;;;;;;;;19.00;18.25;;;29.46;97825.55;;;;117021;1192;25050;-63